<?xml version="1.0" encoding="UTF-8" standalone="no" ?>
<gpx xmlns="http://www.topografix.com/GPX/1/1" xmlns:xsi="http://www.w3.org/2001/XMLSchema-instance" xsi:schemaLocation="http://www.topografix.com/GPX/1/1 http://www.topografix.com/GPX/1/1/gpx.xsd" version="1.1" creator="VisuGPX - https://www.visugpx.com">
  <metadata>
    <name>Brissac - abime Rabanel</name>
    <desc><![CDATA[2015-12 - Brissac - aven de la Dame - Bois Long - abime Rabanel

[b]album[/b] : [url]https://goo.gl/photos/YWgjaUMkhZKfSztj8[/url]
[img]https://2.bp.blogspot.com/-HfLzTIWFMzA/WMrJjXkGAxI/AAAAAAAAQys/-1P6VxczZFAEGnHx7jQreEEmWPTRYf9EACLcB/s1600/2015-12_Brissac_abime-Rabanel_photos_i.JPG[/img]
[b]Idées de randonnées dans la même région[/b]
Parcours : [url]https://www.visugpx.com/membres/24856/causses/seranne/[/url]
Photos : [url]https://jcvertygo.blogspot.com/p/seranne.html[/url]]]></desc>
  </metadata>
  <trk>
    <name><![CDATA[Brissac - abime Rabanel_1]]></name>
    <trkseg>
      <trkpt lat="43.87839" lon="3.70131">
        <ele>134.1</ele>
        <time>2015-12-07T09:49:18Z</time>
      </trkpt>
      <trkpt lat="43.87841" lon="3.70137">
        <ele>134.1</ele>
        <time>2015-12-07T09:49:23Z</time>
      </trkpt>
      <trkpt lat="43.87876" lon="3.70117">
        <ele>131.58686031897</ele>
        <time>2015-12-07T09:50:58Z</time>
      </trkpt>
      <trkpt lat="43.87881" lon="3.70113">
        <ele>131.58686031897</ele>
        <time>2015-12-07T09:51:03Z</time>
      </trkpt>
      <trkpt lat="43.87884" lon="3.70047">
        <ele>131.58582465808</ele>
        <time>2015-12-07T09:51:57Z</time>
      </trkpt>
      <trkpt lat="43.87876" lon="3.70029">
        <ele>132.23134539679</ele>
        <time>2015-12-07T09:52:58Z</time>
      </trkpt>
      <trkpt lat="43.87815" lon="3.70018">
        <ele>132.82646664138</ele>
        <time>2015-12-07T09:53:55Z</time>
      </trkpt>
      <trkpt lat="43.8777" lon="3.70026">
        <ele>133.24141560488</ele>
        <time>2015-12-07T09:54:35Z</time>
      </trkpt>
      <trkpt lat="43.87722" lon="3.7003">
        <ele>133.5288976664</ele>
        <time>2015-12-07T09:55:04Z</time>
      </trkpt>
      <trkpt lat="43.87709" lon="3.70034">
        <ele>133.76890367216</ele>
        <time>2015-12-07T09:55:22Z</time>
      </trkpt>
      <trkpt lat="43.87707" lon="3.70034">
        <ele>133.76890367216</ele>
        <time>2015-12-07T09:55:24Z</time>
      </trkpt>
      <trkpt lat="43.87702" lon="3.70037">
        <ele>133.76890367216</ele>
        <time>2015-12-07T09:55:39Z</time>
      </trkpt>
      <trkpt lat="43.87668" lon="3.69992">
        <ele>134.25422385156</ele>
        <time>2015-12-07T09:57:38Z</time>
      </trkpt>
      <trkpt lat="43.87666" lon="3.6997">
        <ele>134.66901108148</ele>
        <time>2015-12-07T09:57:55Z</time>
      </trkpt>
      <trkpt lat="43.87653" lon="3.69927">
        <ele>135.00915120187</ele>
        <time>2015-12-07T09:58:37Z</time>
      </trkpt>
      <trkpt lat="43.87627" lon="3.6989">
        <ele>134.86117343698</ele>
        <time>2015-12-07T09:59:03Z</time>
      </trkpt>
      <trkpt lat="43.87608" lon="3.69848">
        <ele>135.38595714058</ele>
        <time>2015-12-07T10:01:36Z</time>
      </trkpt>
      <trkpt lat="43.87606" lon="3.69848">
        <ele>135.38595714058</ele>
        <time>2015-12-07T10:01:38Z</time>
      </trkpt>
      <trkpt lat="43.87599" lon="3.6985">
        <ele>135.78126763077</ele>
        <time>2015-12-07T10:01:46Z</time>
      </trkpt>
      <trkpt lat="43.87597" lon="3.6985">
        <ele>135.78126763077</ele>
        <time>2015-12-07T10:01:48Z</time>
      </trkpt>
      <trkpt lat="43.87594" lon="3.69853">
        <ele>135.78126763077</ele>
        <time>2015-12-07T10:01:53Z</time>
      </trkpt>
      <trkpt lat="43.87582" lon="3.69858">
        <ele>135.99584705524</ele>
        <time>2015-12-07T10:02:48Z</time>
      </trkpt>
      <trkpt lat="43.87541" lon="3.69857">
        <ele>136.98213481647</ele>
        <time>2015-12-07T10:03:56Z</time>
      </trkpt>
      <trkpt lat="43.87538" lon="3.69857">
        <ele>136.98213481647</ele>
        <time>2015-12-07T10:03:58Z</time>
      </trkpt>
      <trkpt lat="43.87537" lon="3.69859">
        <ele>136.98213481647</ele>
        <time>2015-12-07T10:04:06Z</time>
      </trkpt>
      <trkpt lat="43.87533" lon="3.6986">
        <ele>136.98213481647</ele>
        <time>2015-12-07T10:04:31Z</time>
      </trkpt>
      <trkpt lat="43.87532" lon="3.69855">
        <ele>138.18661798604</ele>
        <time>2015-12-07T10:05:07Z</time>
      </trkpt>
      <trkpt lat="43.87527" lon="3.69832">
        <ele>139.58341555217</ele>
        <time>2015-12-07T10:05:07Z</time>
      </trkpt>
      <trkpt lat="43.87511" lon="3.69829">
        <ele>141.35719152253</ele>
        <time>2015-12-07T10:06:00Z</time>
      </trkpt>
      <trkpt lat="43.87498" lon="3.69822">
        <ele>143.79427584661</ele>
        <time>2015-12-07T10:06:40Z</time>
      </trkpt>
      <trkpt lat="43.87489" lon="3.69802">
        <ele>146.29308539887</ele>
        <time>2015-12-07T10:07:04Z</time>
      </trkpt>
      <trkpt lat="43.87489" lon="3.69801">
        <ele>146.29308539887</ele>
        <time>2015-12-07T10:07:10Z</time>
      </trkpt>
      <trkpt lat="43.87486" lon="3.69792">
        <ele>146.29308539887</ele>
        <time>2015-12-07T10:07:49Z</time>
      </trkpt>
      <trkpt lat="43.87477" lon="3.69782">
        <ele>149.02501243195</ele>
        <time>2015-12-07T10:07:53Z</time>
      </trkpt>
      <trkpt lat="43.87471" lon="3.69771">
        <ele>151.78994214167</ele>
        <time>2015-12-07T10:08:16Z</time>
      </trkpt>
      <trkpt lat="43.87467" lon="3.69765">
        <ele>151.78994214167</ele>
        <time>2015-12-07T10:08:23Z</time>
      </trkpt>
      <trkpt lat="43.87461" lon="3.6976">
        <ele>154.54961988143</ele>
        <time>2015-12-07T10:08:36Z</time>
      </trkpt>
      <trkpt lat="43.87461" lon="3.69758">
        <ele>154.54961988143</ele>
        <time>2015-12-07T10:08:45Z</time>
      </trkpt>
      <trkpt lat="43.87454" lon="3.69755">
        <ele>154.54961988143</ele>
        <time>2015-12-07T10:09:17Z</time>
      </trkpt>
      <trkpt lat="43.87445" lon="3.69744">
        <ele>157.1684359339</ele>
        <time>2015-12-07T10:09:19Z</time>
      </trkpt>
      <trkpt lat="43.87432" lon="3.69732">
        <ele>160.32986583306</ele>
        <time>2015-12-07T10:10:07Z</time>
      </trkpt>
      <trkpt lat="43.87425" lon="3.69729">
        <ele>160.32986583306</ele>
        <time>2015-12-07T10:11:00Z</time>
      </trkpt>
      <trkpt lat="43.874" lon="3.69684">
        <ele>164.19067831128</ele>
        <time>2015-12-07T10:11:25Z</time>
      </trkpt>
      <trkpt lat="43.87388" lon="3.69675">
        <ele>167.9518826683</ele>
        <time>2015-12-07T10:11:38Z</time>
      </trkpt>
      <trkpt lat="43.87388" lon="3.69674">
        <ele>167.9518826683</ele>
        <time>2015-12-07T10:12:00Z</time>
      </trkpt>
      <trkpt lat="43.87372" lon="3.69656">
        <ele>171.33945134502</ele>
        <time>2015-12-07T10:12:30Z</time>
      </trkpt>
      <trkpt lat="43.87366" lon="3.69645">
        <ele>174.75092668465</ele>
        <time>2015-12-07T10:12:34Z</time>
      </trkpt>
      <trkpt lat="43.87287" lon="3.69399">
        <ele>182.42157449809</ele>
        <time>2015-12-07T10:16:33Z</time>
      </trkpt>
      <trkpt lat="43.8728" lon="3.69388">
        <ele>189.3726388388</ele>
        <time>2015-12-07T10:18:39Z</time>
      </trkpt>
      <trkpt lat="43.87233" lon="3.69239">
        <ele>196.44836300003</ele>
        <time>2015-12-07T10:20:48Z</time>
      </trkpt>
      <trkpt lat="43.87233" lon="3.69233">
        <ele>196.44836300003</ele>
        <time>2015-12-07T10:20:53Z</time>
      </trkpt>
      <trkpt lat="43.87233" lon="3.69228">
        <ele>196.44836300003</ele>
        <time>2015-12-07T10:21:01Z</time>
      </trkpt>
      <trkpt lat="43.87234" lon="3.69224">
        <ele>203.03852527105</ele>
        <time>2015-12-07T10:21:03Z</time>
      </trkpt>
      <trkpt lat="43.87234" lon="3.69221">
        <ele>203.03852527105</ele>
        <time>2015-12-07T10:21:08Z</time>
      </trkpt>
      <trkpt lat="43.87249" lon="3.6917">
        <ele>209.0035787466</ele>
        <time>2015-12-07T10:22:42Z</time>
      </trkpt>
      <trkpt lat="43.87261" lon="3.69132">
        <ele>215.82792261524</ele>
        <time>2015-12-07T10:22:53Z</time>
      </trkpt>
      <trkpt lat="43.87268" lon="3.69114">
        <ele>222.27093201947</ele>
        <time>2015-12-07T10:23:15Z</time>
      </trkpt>
      <trkpt lat="43.87308" lon="3.69126">
        <ele>228.10480246452</ele>
        <time>2015-12-07T10:25:03Z</time>
      </trkpt>
      <trkpt lat="43.87313" lon="3.69136">
        <ele>234.46003705171</ele>
        <time>2015-12-07T10:25:08Z</time>
      </trkpt>
      <trkpt lat="43.87383" lon="3.69037">
        <ele>242.20786765901</ele>
        <time>2015-12-07T10:29:00Z</time>
      </trkpt>
      <trkpt lat="43.87378" lon="3.69031">
        <ele>242.20786765901</ele>
        <time>2015-12-07T10:29:05Z</time>
      </trkpt>
      <trkpt lat="43.87375" lon="3.69028">
        <ele>249.34055396719</ele>
        <time>2015-12-07T10:29:11Z</time>
      </trkpt>
      <trkpt lat="43.87373" lon="3.68945">
        <ele>256.49863590288</ele>
        <time>2015-12-07T10:31:28Z</time>
      </trkpt>
      <trkpt lat="43.87385" lon="3.68941">
        <ele>263.80978567332</ele>
        <time>2015-12-07T10:32:15Z</time>
      </trkpt>
      <trkpt lat="43.874" lon="3.68955">
        <ele>270.7642035521</ele>
        <time>2015-12-07T10:32:26Z</time>
      </trkpt>
      <trkpt lat="43.874" lon="3.68957">
        <ele>270.7642035521</ele>
        <time>2015-12-07T10:32:34Z</time>
      </trkpt>
      <trkpt lat="43.87422" lon="3.68969">
        <ele>277.95809531415</ele>
        <time>2015-12-07T10:33:05Z</time>
      </trkpt>
      <trkpt lat="43.87426" lon="3.68968">
        <ele>277.95809531415</ele>
        <time>2015-12-07T10:33:10Z</time>
      </trkpt>
      <trkpt lat="43.87429" lon="3.68968">
        <ele>277.95809531415</ele>
        <time>2015-12-07T10:33:13Z</time>
      </trkpt>
      <trkpt lat="43.87447" lon="3.68978">
        <ele>285.02036612822</ele>
        <time>2015-12-07T10:33:38Z</time>
      </trkpt>
      <trkpt lat="43.8745" lon="3.6898">
        <ele>285.02036612822</ele>
        <time>2015-12-07T10:33:43Z</time>
      </trkpt>
      <trkpt lat="43.87451" lon="3.68982">
        <ele>285.02036612822</ele>
        <time>2015-12-07T10:33:48Z</time>
      </trkpt>
      <trkpt lat="43.8747" lon="3.68999">
        <ele>291.58775094291</ele>
        <time>2015-12-07T10:34:33Z</time>
      </trkpt>
      <trkpt lat="43.87481" lon="3.69015">
        <ele>297.44228580281</ele>
        <time>2015-12-07T10:35:07Z</time>
      </trkpt>
      <trkpt lat="43.87481" lon="3.6902">
        <ele>297.44228580281</ele>
        <time>2015-12-07T10:35:07Z</time>
      </trkpt>
      <trkpt lat="43.87495" lon="3.69065">
        <ele>302.9852452876</ele>
        <time>2015-12-07T10:36:04Z</time>
      </trkpt>
      <trkpt lat="43.87497" lon="3.69064">
        <ele>302.9852452876</ele>
        <time>2015-12-07T10:36:08Z</time>
      </trkpt>
      <trkpt lat="43.87499" lon="3.69065">
        <ele>302.9852452876</ele>
        <time>2015-12-07T10:36:18Z</time>
      </trkpt>
      <trkpt lat="43.87503" lon="3.69055">
        <ele>308.92561969136</ele>
        <time>2015-12-07T10:36:58Z</time>
      </trkpt>
      <trkpt lat="43.87502" lon="3.69052">
        <ele>308.92561969136</ele>
        <time>2015-12-07T10:37:28Z</time>
      </trkpt>
      <trkpt lat="43.87503" lon="3.6905">
        <ele>308.92561969136</ele>
        <time>2015-12-07T10:37:58Z</time>
      </trkpt>
      <trkpt lat="43.87503" lon="3.69046">
        <ele>308.92561969136</ele>
        <time>2015-12-07T10:38:03Z</time>
      </trkpt>
      <trkpt lat="43.87504" lon="3.69041">
        <ele>314.02368568097</ele>
        <time>2015-12-07T10:38:19Z</time>
      </trkpt>
      <trkpt lat="43.8751" lon="3.69032">
        <ele>318.76167181947</ele>
        <time>2015-12-07T10:40:32Z</time>
      </trkpt>
      <trkpt lat="43.87508" lon="3.69025">
        <ele>318.76167181947</ele>
        <time>2015-12-07T10:40:45Z</time>
      </trkpt>
      <trkpt lat="43.87508" lon="3.69025">
        <ele>318.76167181947</ele>
        <time>2015-12-07T10:41:31Z</time>
      </trkpt>
      <trkpt lat="43.87512" lon="3.69019">
        <ele>322.78919054757</ele>
        <time>2015-12-07T10:42:00Z</time>
      </trkpt>
      <trkpt lat="43.87531" lon="3.69009">
        <ele>326.79753687551</ele>
        <time>2015-12-07T10:43:23Z</time>
      </trkpt>
      <trkpt lat="43.87539" lon="3.69021">
        <ele>330.24822045301</ele>
        <time>2015-12-07T10:43:55Z</time>
      </trkpt>
      <trkpt lat="43.87542" lon="3.69025">
        <ele>330.24822045301</ele>
        <time>2015-12-07T10:43:55Z</time>
      </trkpt>
      <trkpt lat="43.87545" lon="3.69027">
        <ele>330.24822045301</ele>
        <time>2015-12-07T10:44:20Z</time>
      </trkpt>
      <trkpt lat="43.87554" lon="3.69027">
        <ele>333.37109375703</ele>
        <time>2015-12-07T10:44:29Z</time>
      </trkpt>
      <trkpt lat="43.87555" lon="3.69027">
        <ele>333.37109375703</ele>
        <time>2015-12-07T10:44:30Z</time>
      </trkpt>
      <trkpt lat="43.87585" lon="3.69051">
        <ele>337.26705104848</ele>
        <time>2015-12-07T10:45:36Z</time>
      </trkpt>
      <trkpt lat="43.87614" lon="3.69065">
        <ele>341.1407628325</ele>
        <time>2015-12-07T10:46:55Z</time>
      </trkpt>
      <trkpt lat="43.87615" lon="3.69064">
        <ele>341.1407628325</ele>
        <time>2015-12-07T10:46:56Z</time>
      </trkpt>
      <trkpt lat="43.87648" lon="3.69054">
        <ele>345.19199303448</ele>
        <time>2015-12-07T10:48:05Z</time>
      </trkpt>
      <trkpt lat="43.87652" lon="3.69052">
        <ele>345.19199303448</ele>
        <time>2015-12-07T10:48:05Z</time>
      </trkpt>
      <trkpt lat="43.87663" lon="3.69052">
        <ele>349.31878704012</ele>
        <time>2015-12-07T10:48:27Z</time>
      </trkpt>
      <trkpt lat="43.8768" lon="3.69053">
        <ele>353.24817950486</ele>
        <time>2015-12-07T10:49:00Z</time>
      </trkpt>
      <trkpt lat="43.87697" lon="3.6907">
        <ele>356.9392150294</ele>
        <time>2015-12-07T10:49:24Z</time>
      </trkpt>
      <trkpt lat="43.87698" lon="3.69076">
        <ele>356.9392150294</ele>
        <time>2015-12-07T10:49:41Z</time>
      </trkpt>
      <trkpt lat="43.877" lon="3.69082">
        <ele>360.05791341195</ele>
        <time>2015-12-07T10:49:43Z</time>
      </trkpt>
      <trkpt lat="43.87703" lon="3.69084">
        <ele>360.05791341195</ele>
        <time>2015-12-07T10:49:48Z</time>
      </trkpt>
      <trkpt lat="43.87723" lon="3.69121">
        <ele>362.19626216091</ele>
        <time>2015-12-07T10:50:58Z</time>
      </trkpt>
      <trkpt lat="43.8774" lon="3.69143">
        <ele>363.38227251485</ele>
        <time>2015-12-07T10:51:45Z</time>
      </trkpt>
      <trkpt lat="43.87747" lon="3.69149">
        <ele>363.38227251485</ele>
        <time>2015-12-07T10:51:48Z</time>
      </trkpt>
      <trkpt lat="43.87748" lon="3.69151">
        <ele>364.04207598322</ele>
        <time>2015-12-07T10:51:48Z</time>
      </trkpt>
      <trkpt lat="43.87763" lon="3.69158">
        <ele>364.12595656702</ele>
        <time>2015-12-07T10:52:04Z</time>
      </trkpt>
      <trkpt lat="43.87765" lon="3.69162">
        <ele>364.12595656702</ele>
        <time>2015-12-07T10:52:04Z</time>
      </trkpt>
      <trkpt lat="43.87808" lon="3.69179">
        <ele>363.09044959834</ele>
        <time>2015-12-07T10:52:50Z</time>
      </trkpt>
      <trkpt lat="43.87809" lon="3.69181">
        <ele>363.09044959834</ele>
        <time>2015-12-07T10:52:54Z</time>
      </trkpt>
      <trkpt lat="43.87827" lon="3.69195">
        <ele>361.42075397612</ele>
        <time>2015-12-07T10:53:21Z</time>
      </trkpt>
      <trkpt lat="43.87849" lon="3.69211">
        <ele>359.21264823952</ele>
        <time>2015-12-07T10:53:48Z</time>
      </trkpt>
      <trkpt lat="43.87931" lon="3.69278">
        <ele>355.2565865755</ele>
        <time>2015-12-07T10:55:33Z</time>
      </trkpt>
      <trkpt lat="43.87939" lon="3.69281">
        <ele>355.2565865755</ele>
        <time>2015-12-07T10:55:33Z</time>
      </trkpt>
      <trkpt lat="43.87999" lon="3.69344">
        <ele>350.20686246066</ele>
        <time>2015-12-07T10:57:04Z</time>
      </trkpt>
      <trkpt lat="43.88003" lon="3.69346">
        <ele>350.20686246066</ele>
        <time>2015-12-07T10:57:04Z</time>
      </trkpt>
      <trkpt lat="43.88011" lon="3.69355">
        <ele>345.16187170122</ele>
        <time>2015-12-07T10:57:25Z</time>
      </trkpt>
      <trkpt lat="43.88019" lon="3.69363">
        <ele>340.23206339417</ele>
        <time>2015-12-07T10:57:25Z</time>
      </trkpt>
      <trkpt lat="43.88034" lon="3.69383">
        <ele>335.31575266793</ele>
        <time>2015-12-07T10:57:48Z</time>
      </trkpt>
      <trkpt lat="43.8806" lon="3.69408">
        <ele>330.33353802908</ele>
        <time>2015-12-07T10:58:34Z</time>
      </trkpt>
      <trkpt lat="43.88066" lon="3.69414">
        <ele>330.33353802908</ele>
        <time>2015-12-07T10:58:34Z</time>
      </trkpt>
      <trkpt lat="43.88078" lon="3.6942">
        <ele>325.50162060602</ele>
        <time>2015-12-07T10:58:46Z</time>
      </trkpt>
      <trkpt lat="43.88084" lon="3.69422">
        <ele>325.50162060602</ele>
        <time>2015-12-07T10:58:53Z</time>
      </trkpt>
      <trkpt lat="43.88105" lon="3.69419">
        <ele>321.14910065909</ele>
        <time>2015-12-07T10:59:21Z</time>
      </trkpt>
      <trkpt lat="43.88126" lon="3.69412">
        <ele>317.24611588883</ele>
        <time>2015-12-07T10:59:51Z</time>
      </trkpt>
      <trkpt lat="43.8814" lon="3.69409">
        <ele>314.71694316616</ele>
        <time>2015-12-07T10:59:51Z</time>
      </trkpt>
      <trkpt lat="43.88169" lon="3.69402">
        <ele>313.31515805736</ele>
        <time>2015-12-07T11:00:24Z</time>
      </trkpt>
      <trkpt lat="43.88212" lon="3.69391">
        <ele>312.21814349433</ele>
        <time>2015-12-07T11:01:16Z</time>
      </trkpt>
      <trkpt lat="43.8822" lon="3.69388">
        <ele>312.21814349433</ele>
        <time>2015-12-07T11:01:16Z</time>
      </trkpt>
      <trkpt lat="43.88239" lon="3.69383">
        <ele>310.90894720376</ele>
        <time>2015-12-07T11:01:41Z</time>
      </trkpt>
      <trkpt lat="43.88246" lon="3.69377">
        <ele>310.90894720376</ele>
        <time>2015-12-07T11:01:41Z</time>
      </trkpt>
      <trkpt lat="43.88276" lon="3.69361">
        <ele>309.41398519937</ele>
        <time>2015-12-07T11:02:18Z</time>
      </trkpt>
      <trkpt lat="43.88284" lon="3.69357">
        <ele>309.41398519937</ele>
        <time>2015-12-07T11:02:22Z</time>
      </trkpt>
      <trkpt lat="43.88327" lon="3.69315">
        <ele>307.80090559821</ele>
        <time>2015-12-07T11:03:18Z</time>
      </trkpt>
      <trkpt lat="43.88342" lon="3.69284">
        <ele>306.36281975472</ele>
        <time>2015-12-07T11:03:56Z</time>
      </trkpt>
      <trkpt lat="43.88346" lon="3.69271">
        <ele>304.9376630669</ele>
        <time>2015-12-07T11:04:41Z</time>
      </trkpt>
      <trkpt lat="43.88366" lon="3.69213">
        <ele>303.53336350472</ele>
        <time>2015-12-07T11:04:53Z</time>
      </trkpt>
      <trkpt lat="43.88366" lon="3.69212">
        <ele>303.53336350472</ele>
        <time>2015-12-07T11:04:58Z</time>
      </trkpt>
      <trkpt lat="43.88365" lon="3.69207">
        <ele>303.53336350472</ele>
        <time>2015-12-07T11:05:33Z</time>
      </trkpt>
      <trkpt lat="43.88362" lon="3.69193">
        <ele>302.28645766025</ele>
        <time>2015-12-07T11:05:54Z</time>
      </trkpt>
      <trkpt lat="43.88363" lon="3.69187">
        <ele>302.28645766025</ele>
        <time>2015-12-07T11:05:54Z</time>
      </trkpt>
      <trkpt lat="43.88363" lon="3.69176">
        <ele>301.20717492679</ele>
        <time>2015-12-07T11:06:11Z</time>
      </trkpt>
      <trkpt lat="43.88449" lon="3.6912">
        <ele>300.34730134162</ele>
        <time>2015-12-07T11:07:54Z</time>
      </trkpt>
      <trkpt lat="43.88501" lon="3.69148">
        <ele>299.42209548217</ele>
        <time>2015-12-07T11:08:56Z</time>
      </trkpt>
      <trkpt lat="43.88509" lon="3.69155">
        <ele>298.55676802021</ele>
        <time>2015-12-07T11:08:57Z</time>
      </trkpt>
      <trkpt lat="43.88547" lon="3.69153">
        <ele>297.14568990198</ele>
        <time>2015-12-07T11:09:41Z</time>
      </trkpt>
      <trkpt lat="43.88549" lon="3.69145">
        <ele>297.14568990198</ele>
        <time>2015-12-07T11:09:43Z</time>
      </trkpt>
      <trkpt lat="43.88553" lon="3.69129">
        <ele>295.60944165126</ele>
        <time>2015-12-07T11:09:54Z</time>
      </trkpt>
      <trkpt lat="43.8856" lon="3.69103">
        <ele>293.99157766528</ele>
        <time>2015-12-07T11:10:18Z</time>
      </trkpt>
      <trkpt lat="43.88561" lon="3.69097">
        <ele>293.99157766528</ele>
        <time>2015-12-07T11:10:18Z</time>
      </trkpt>
      <trkpt lat="43.88562" lon="3.69095">
        <ele>293.99157766528</ele>
        <time>2015-12-07T11:10:30Z</time>
      </trkpt>
      <trkpt lat="43.88559" lon="3.69088">
        <ele>292.05826392274</ele>
        <time>2015-12-07T11:11:53Z</time>
      </trkpt>
      <trkpt lat="43.88564" lon="3.69074">
        <ele>290.31453576261</ele>
        <time>2015-12-07T11:12:15Z</time>
      </trkpt>
      <trkpt lat="43.88601" lon="3.68946">
        <ele>287.97256438447</ele>
        <time>2015-12-07T11:13:43Z</time>
      </trkpt>
      <trkpt lat="43.88642" lon="3.688">
        <ele>285.68846486861</ele>
        <time>2015-12-07T11:15:44Z</time>
      </trkpt>
      <trkpt lat="43.88693" lon="3.6878">
        <ele>283.11763605056</ele>
        <time>2015-12-07T11:16:51Z</time>
      </trkpt>
      <trkpt lat="43.88688" lon="3.68769">
        <ele>280.79232750184</ele>
        <time>2015-12-07T11:16:51Z</time>
      </trkpt>
      <trkpt lat="43.88681" lon="3.68757">
        <ele>278.69978406531</ele>
        <time>2015-12-07T11:17:10Z</time>
      </trkpt>
      <trkpt lat="43.88679" lon="3.68749">
        <ele>278.69978406531</ele>
        <time>2015-12-07T11:17:10Z</time>
      </trkpt>
      <trkpt lat="43.88661" lon="3.68716">
        <ele>277.18781112029</ele>
        <time>2015-12-07T11:17:43Z</time>
      </trkpt>
      <trkpt lat="43.88651" lon="3.68716">
        <ele>276.17281573083</ele>
        <time>2015-12-07T11:18:09Z</time>
      </trkpt>
      <trkpt lat="43.88644" lon="3.68712">
        <ele>276.17281573083</ele>
        <time>2015-12-07T11:18:11Z</time>
      </trkpt>
      <trkpt lat="43.88636" lon="3.68699">
        <ele>275.76316753219</ele>
        <time>2015-12-07T11:18:33Z</time>
      </trkpt>
      <trkpt lat="43.88623" lon="3.68669">
        <ele>275.92748378087</ele>
        <time>2015-12-07T11:19:10Z</time>
      </trkpt>
      <trkpt lat="43.88617" lon="3.68666">
        <ele>275.92748378087</ele>
        <time>2015-12-07T11:19:10Z</time>
      </trkpt>
      <trkpt lat="43.88596" lon="3.68623">
        <ele>276.3031391727</ele>
        <time>2015-12-07T11:19:58Z</time>
      </trkpt>
      <trkpt lat="43.88589" lon="3.68608">
        <ele>277.07257547483</ele>
        <time>2015-12-07T11:20:20Z</time>
      </trkpt>
      <trkpt lat="43.8859" lon="3.68598">
        <ele>277.07257547483</ele>
        <time>2015-12-07T11:20:20Z</time>
      </trkpt>
      <trkpt lat="43.8859" lon="3.68595">
        <ele>277.92763765613</ele>
        <time>2015-12-07T11:20:28Z</time>
      </trkpt>
      <trkpt lat="43.88583" lon="3.68548">
        <ele>279.67837186044</ele>
        <time>2015-12-07T11:21:25Z</time>
      </trkpt>
      <trkpt lat="43.88585" lon="3.68545">
        <ele>279.67837186044</ele>
        <time>2015-12-07T11:21:26Z</time>
      </trkpt>
      <trkpt lat="43.88581" lon="3.6853">
        <ele>281.48644084994</ele>
        <time>2015-12-07T11:21:38Z</time>
      </trkpt>
      <trkpt lat="43.88578" lon="3.68524">
        <ele>281.48644084994</ele>
        <time>2015-12-07T11:21:45Z</time>
      </trkpt>
      <trkpt lat="43.88586" lon="3.68506">
        <ele>283.31034660277</ele>
        <time>2015-12-07T11:21:58Z</time>
      </trkpt>
      <trkpt lat="43.88579" lon="3.68496">
        <ele>285.84683318637</ele>
        <time>2015-12-07T11:22:28Z</time>
      </trkpt>
      <trkpt lat="43.88573" lon="3.6849">
        <ele>285.84683318637</ele>
        <time>2015-12-07T11:22:50Z</time>
      </trkpt>
      <trkpt lat="43.88567" lon="3.68491">
        <ele>289.03288721216</ele>
        <time>2015-12-07T11:23:27Z</time>
      </trkpt>
      <trkpt lat="43.88565" lon="3.6849">
        <ele>289.03288721216</ele>
        <time>2015-12-07T11:23:27Z</time>
      </trkpt>
      <trkpt lat="43.88565" lon="3.68489">
        <ele>289.03288721216</ele>
        <time>2015-12-07T11:23:44Z</time>
      </trkpt>
      <trkpt lat="43.8857" lon="3.68478">
        <ele>292.08753098691</ele>
        <time>2015-12-07T11:25:35Z</time>
      </trkpt>
      <trkpt lat="43.88561" lon="3.68474">
        <ele>295.46977036763</ele>
        <time>2015-12-07T11:38:54Z</time>
      </trkpt>
      <trkpt lat="43.88568" lon="3.68481">
        <ele>298.94089380414</ele>
        <time>2015-12-07T11:39:48Z</time>
      </trkpt>
      <trkpt lat="43.88568" lon="3.68481">
        <ele>298.94089380414</ele>
        <time>2015-12-07T11:39:53Z</time>
      </trkpt>
      <trkpt lat="43.88581" lon="3.68509">
        <ele>302.25079282729</ele>
        <time>2015-12-07T11:42:09Z</time>
      </trkpt>
      <trkpt lat="43.88582" lon="3.6852">
        <ele>302.25079282729</ele>
        <time>2015-12-07T11:42:18Z</time>
      </trkpt>
      <trkpt lat="43.88583" lon="3.68529">
        <ele>305.37014527071</ele>
        <time>2015-12-07T11:42:37Z</time>
      </trkpt>
      <trkpt lat="43.88583" lon="3.68533">
        <ele>305.37014527071</ele>
        <time>2015-12-07T11:43:00Z</time>
      </trkpt>
      <trkpt lat="43.88581" lon="3.68537">
        <ele>305.37014527071</ele>
        <time>2015-12-07T11:43:00Z</time>
      </trkpt>
      <trkpt lat="43.88606" lon="3.68607">
        <ele>308.15717194604</ele>
        <time>2015-12-07T11:44:02Z</time>
      </trkpt>
      <trkpt lat="43.88647" lon="3.68685">
        <ele>310.43839550084</ele>
        <time>2015-12-07T11:45:06Z</time>
      </trkpt>
      <trkpt lat="43.88686" lon="3.68757">
        <ele>310.36843303217</ele>
        <time>2015-12-07T11:46:13Z</time>
      </trkpt>
      <trkpt lat="43.88686" lon="3.68761">
        <ele>310.36843303217</ele>
        <time>2015-12-07T11:46:23Z</time>
      </trkpt>
      <trkpt lat="43.88684" lon="3.68773">
        <ele>309.91953192956</ele>
        <time>2015-12-07T11:46:40Z</time>
      </trkpt>
      <trkpt lat="43.88682" lon="3.68781">
        <ele>309.91953192956</ele>
        <time>2015-12-07T11:46:40Z</time>
      </trkpt>
      <trkpt lat="43.88665" lon="3.6878">
        <ele>308.75835400759</ele>
        <time>2015-12-07T11:47:00Z</time>
      </trkpt>
      <trkpt lat="43.88643" lon="3.68788">
        <ele>307.21237077025</ele>
        <time>2015-12-07T11:47:22Z</time>
      </trkpt>
      <trkpt lat="43.88641" lon="3.68788">
        <ele>307.21237077025</ele>
        <time>2015-12-07T11:47:26Z</time>
      </trkpt>
      <trkpt lat="43.88637" lon="3.68791">
        <ele>307.21237077025</ele>
        <time>2015-12-07T11:47:30Z</time>
      </trkpt>
      <trkpt lat="43.88579" lon="3.69003">
        <ele>304.98093715221</ele>
        <time>2015-12-07T11:50:06Z</time>
      </trkpt>
      <trkpt lat="43.88558" lon="3.69066">
        <ele>303.25755343533</ele>
        <time>2015-12-07T11:50:51Z</time>
      </trkpt>
      <trkpt lat="43.88557" lon="3.69069">
        <ele>303.25755343533</ele>
        <time>2015-12-07T11:50:51Z</time>
      </trkpt>
      <trkpt lat="43.88555" lon="3.69076">
        <ele>303.25755343533</ele>
        <time>2015-12-07T11:50:58Z</time>
      </trkpt>
      <trkpt lat="43.88556" lon="3.6909">
        <ele>301.84968622562</ele>
        <time>2015-12-07T11:51:08Z</time>
      </trkpt>
      <trkpt lat="43.88555" lon="3.69092">
        <ele>301.84968622562</ele>
        <time>2015-12-07T11:51:15Z</time>
      </trkpt>
      <trkpt lat="43.88552" lon="3.69098">
        <ele>301.84968622562</ele>
        <time>2015-12-07T11:51:15Z</time>
      </trkpt>
      <trkpt lat="43.88549" lon="3.69108">
        <ele>300.85199842733</ele>
        <time>2015-12-07T11:51:31Z</time>
      </trkpt>
      <trkpt lat="43.88545" lon="3.69119">
        <ele>300.85199842733</ele>
        <time>2015-12-07T11:51:31Z</time>
      </trkpt>
      <trkpt lat="43.88535" lon="3.69152">
        <ele>300.40879238594</ele>
        <time>2015-12-07T11:51:57Z</time>
      </trkpt>
      <trkpt lat="43.88524" lon="3.69156">
        <ele>300.32084261173</ele>
        <time>2015-12-07T11:52:31Z</time>
      </trkpt>
      <trkpt lat="43.88514" lon="3.69151">
        <ele>300.2152971958</ele>
        <time>2015-12-07T11:52:41Z</time>
      </trkpt>
      <trkpt lat="43.88492" lon="3.69132">
        <ele>300.35209033277</ele>
        <time>2015-12-07T11:53:16Z</time>
      </trkpt>
      <trkpt lat="43.88486" lon="3.69126">
        <ele>300.35209033277</ele>
        <time>2015-12-07T11:53:16Z</time>
      </trkpt>
      <trkpt lat="43.88481" lon="3.69124">
        <ele>301.17321040983</ele>
        <time>2015-12-07T11:53:33Z</time>
      </trkpt>
      <trkpt lat="43.88473" lon="3.69125">
        <ele>301.17321040983</ele>
        <time>2015-12-07T11:53:33Z</time>
      </trkpt>
      <trkpt lat="43.88436" lon="3.69113">
        <ele>302.4378238843</ele>
        <time>2015-12-07T11:54:13Z</time>
      </trkpt>
      <trkpt lat="43.88429" lon="3.69115">
        <ele>302.4378238843</ele>
        <time>2015-12-07T11:54:21Z</time>
      </trkpt>
      <trkpt lat="43.88422" lon="3.69122">
        <ele>303.84956293347</ele>
        <time>2015-12-07T11:54:28Z</time>
      </trkpt>
      <trkpt lat="43.8842" lon="3.69125">
        <ele>303.84956293347</ele>
        <time>2015-12-07T11:54:36Z</time>
      </trkpt>
      <trkpt lat="43.88369" lon="3.69236">
        <ele>305.56583738771</ele>
        <time>2015-12-07T11:56:40Z</time>
      </trkpt>
      <trkpt lat="43.88338" lon="3.69374">
        <ele>306.2617700051</ele>
        <time>2015-12-07T11:58:28Z</time>
      </trkpt>
      <trkpt lat="43.88333" lon="3.69378">
        <ele>306.2617700051</ele>
        <time>2015-12-07T11:58:46Z</time>
      </trkpt>
      <trkpt lat="43.88331" lon="3.69379">
        <ele>306.2617700051</ele>
        <time>2015-12-07T11:58:48Z</time>
      </trkpt>
      <trkpt lat="43.88288" lon="3.69417">
        <ele>306.83122834009</ele>
        <time>2015-12-07T12:00:00Z</time>
      </trkpt>
      <trkpt lat="43.88244" lon="3.69449">
        <ele>307.05083935452</ele>
        <time>2015-12-07T12:00:26Z</time>
      </trkpt>
      <trkpt lat="43.88198" lon="3.69491">
        <ele>306.49854188016</ele>
        <time>2015-12-07T12:01:33Z</time>
      </trkpt>
      <trkpt lat="43.88194" lon="3.69497">
        <ele>306.49854188016</ele>
        <time>2015-12-07T12:01:33Z</time>
      </trkpt>
      <trkpt lat="43.88159" lon="3.69539">
        <ele>304.90082190895</ele>
        <time>2015-12-07T12:02:48Z</time>
      </trkpt>
      <trkpt lat="43.88148" lon="3.69543">
        <ele>303.28988656918</ele>
        <time>2015-12-07T12:03:11Z</time>
      </trkpt>
      <trkpt lat="43.88137" lon="3.69622">
        <ele>297.96730788096</ele>
        <time>2015-12-07T12:05:58Z</time>
      </trkpt>
      <trkpt lat="43.88132" lon="3.69618">
        <ele>297.96730788096</ele>
        <time>2015-12-07T12:06:00Z</time>
      </trkpt>
      <trkpt lat="43.88089" lon="3.69598">
        <ele>292.80899081537</ele>
        <time>2015-12-07T12:06:48Z</time>
      </trkpt>
      <trkpt lat="43.88039" lon="3.69554">
        <ele>287.80278294794</ele>
        <time>2015-12-07T12:07:52Z</time>
      </trkpt>
      <trkpt lat="43.88015" lon="3.6956">
        <ele>283.09548079789</ele>
        <time>2015-12-07T12:08:35Z</time>
      </trkpt>
      <trkpt lat="43.88009" lon="3.69567">
        <ele>283.09548079789</ele>
        <time>2015-12-07T12:09:07Z</time>
      </trkpt>
      <trkpt lat="43.87977" lon="3.69574">
        <ele>278.11601348</ele>
        <time>2015-12-07T12:09:44Z</time>
      </trkpt>
      <trkpt lat="43.87969" lon="3.69557">
        <ele>273.47441578328</ele>
        <time>2015-12-07T12:09:59Z</time>
      </trkpt>
      <trkpt lat="43.87958" lon="3.69551">
        <ele>269.15835437289</ele>
        <time>2015-12-07T12:10:21Z</time>
      </trkpt>
      <trkpt lat="43.87935" lon="3.6953">
        <ele>264.88149795556</ele>
        <time>2015-12-07T12:10:48Z</time>
      </trkpt>
      <trkpt lat="43.87926" lon="3.69527">
        <ele>260.78176518542</ele>
        <time>2015-12-07T12:10:58Z</time>
      </trkpt>
      <trkpt lat="43.87819" lon="3.69471">
        <ele>254.16158898173</ele>
        <time>2015-12-07T12:13:14Z</time>
      </trkpt>
      <trkpt lat="43.87819" lon="3.69472">
        <ele>254.16158898173</ele>
        <time>2015-12-07T12:13:14Z</time>
      </trkpt>
      <trkpt lat="43.87815" lon="3.69475">
        <ele>254.16158898173</ele>
        <time>2015-12-07T12:13:18Z</time>
      </trkpt>
      <trkpt lat="43.87786" lon="3.69473">
        <ele>247.87503946302</ele>
        <time>2015-12-07T12:13:48Z</time>
      </trkpt>
      <trkpt lat="43.87773" lon="3.69475">
        <ele>242.0000852255</ele>
        <time>2015-12-07T12:14:45Z</time>
      </trkpt>
      <trkpt lat="43.87721" lon="3.6947">
        <ele>236.52105518853</ele>
        <time>2015-12-07T12:14:56Z</time>
      </trkpt>
      <trkpt lat="43.87718" lon="3.69469">
        <ele>236.52105518853</ele>
        <time>2015-12-07T12:14:58Z</time>
      </trkpt>
      <trkpt lat="43.8766" lon="3.69458">
        <ele>231.30671717673</ele>
        <time>2015-12-07T12:15:58Z</time>
      </trkpt>
      <trkpt lat="43.87595" lon="3.69425">
        <ele>226.59469338787</ele>
        <time>2015-12-07T12:17:19Z</time>
      </trkpt>
      <trkpt lat="43.87585" lon="3.69424">
        <ele>222.38723274805</ele>
        <time>2015-12-07T12:17:19Z</time>
      </trkpt>
      <trkpt lat="43.87536" lon="3.69407">
        <ele>218.78553999465</ele>
        <time>2015-12-07T12:18:42Z</time>
      </trkpt>
      <trkpt lat="43.87509" lon="3.69423">
        <ele>215.72281984718</ele>
        <time>2015-12-07T12:18:59Z</time>
      </trkpt>
      <trkpt lat="43.87465" lon="3.69432">
        <ele>213.42356187083</ele>
        <time>2015-12-07T12:20:00Z</time>
      </trkpt>
      <trkpt lat="43.87362" lon="3.69464">
        <ele>211.44479331604</ele>
        <time>2015-12-07T12:21:41Z</time>
      </trkpt>
      <trkpt lat="43.87325" lon="3.69461">
        <ele>209.73515785461</ele>
        <time>2015-12-07T12:22:23Z</time>
      </trkpt>
      <trkpt lat="43.87326" lon="3.69462">
        <ele>209.73515785461</ele>
        <time>2015-12-07T12:22:23Z</time>
      </trkpt>
      <trkpt lat="43.87333" lon="3.69504">
        <ele>208.14515052014</ele>
        <time>2015-12-07T12:22:48Z</time>
      </trkpt>
      <trkpt lat="43.87335" lon="3.69515">
        <ele>208.14515052014</ele>
        <time>2015-12-07T12:22:53Z</time>
      </trkpt>
      <trkpt lat="43.87344" lon="3.69588">
        <ele>206.42035711953</ele>
        <time>2015-12-07T12:23:51Z</time>
      </trkpt>
      <trkpt lat="43.87429" lon="3.69726">
        <ele>201.63029052593</ele>
        <time>2015-12-07T12:26:23Z</time>
      </trkpt>
      <trkpt lat="43.87432" lon="3.69731">
        <ele>201.63029052593</ele>
        <time>2015-12-07T12:26:27Z</time>
      </trkpt>
      <trkpt lat="43.87443" lon="3.69739">
        <ele>196.94785714626</ele>
        <time>2015-12-07T12:26:53Z</time>
      </trkpt>
      <trkpt lat="43.8746" lon="3.69758">
        <ele>191.13310172726</ele>
        <time>2015-12-07T12:27:24Z</time>
      </trkpt>
      <trkpt lat="43.87487" lon="3.69804">
        <ele>183.93358292994</ele>
        <time>2015-12-07T12:28:57Z</time>
      </trkpt>
      <trkpt lat="43.87486" lon="3.69804">
        <ele>183.93358292994</ele>
        <time>2015-12-07T12:28:57Z</time>
      </trkpt>
      <trkpt lat="43.87486" lon="3.69808">
        <ele>183.93358292994</ele>
        <time>2015-12-07T12:29:04Z</time>
      </trkpt>
      <trkpt lat="43.87515" lon="3.6987">
        <ele>176.01252204963</ele>
        <time>2015-12-07T12:30:21Z</time>
      </trkpt>
      <trkpt lat="43.87542" lon="3.6991">
        <ele>167.77000034779</ele>
        <time>2015-12-07T12:30:58Z</time>
      </trkpt>
      <trkpt lat="43.87565" lon="3.69935">
        <ele>159.51966712465</ele>
        <time>2015-12-07T12:31:39Z</time>
      </trkpt>
      <trkpt lat="43.87621" lon="3.70069">
        <ele>148.62636617477</ele>
        <time>2015-12-07T12:33:41Z</time>
      </trkpt>
      <trkpt lat="43.87622" lon="3.70159">
        <ele>137.52653569733</ele>
        <time>2015-12-07T12:34:48Z</time>
      </trkpt>
      <trkpt lat="43.8763" lon="3.70168">
        <ele>127.44022027641</ele>
        <time>2015-12-07T12:34:48Z</time>
      </trkpt>
      <trkpt lat="43.87637" lon="3.70177">
        <ele>118.31286287466</ele>
        <time>2015-12-07T12:34:56Z</time>
      </trkpt>
      <trkpt lat="43.87639" lon="3.70178">
        <ele>118.31286287466</ele>
        <time>2015-12-07T12:34:58Z</time>
      </trkpt>
      <trkpt lat="43.87655" lon="3.70179">
        <ele>109.9322527451</ele>
        <time>2015-12-07T12:35:21Z</time>
      </trkpt>
      <trkpt lat="43.87666" lon="3.7018">
        <ele>102.41625157595</ele>
        <time>2015-12-07T12:35:22Z</time>
      </trkpt>
      <trkpt lat="43.8771" lon="3.70169">
        <ele>95.53970798843</ele>
        <time>2015-12-07T12:35:58Z</time>
      </trkpt>
      <trkpt lat="43.87716" lon="3.70169">
        <ele>95.53970798843</ele>
        <time>2015-12-07T12:36:03Z</time>
      </trkpt>
      <trkpt lat="43.87733" lon="3.70157">
        <ele>89.495255264101</ele>
        <time>2015-12-07T12:36:18Z</time>
      </trkpt>
      <trkpt lat="43.87737" lon="3.70155">
        <ele>89.495255264101</ele>
        <time>2015-12-07T12:36:23Z</time>
      </trkpt>
      <trkpt lat="43.87749" lon="3.70154">
        <ele>84.44416788353</ele>
        <time>2015-12-07T12:36:33Z</time>
      </trkpt>
      <trkpt lat="43.87754" lon="3.70152">
        <ele>84.44416788353</ele>
        <time>2015-12-07T12:36:38Z</time>
      </trkpt>
      <trkpt lat="43.87762" lon="3.70153">
        <ele>80.316474418495</ele>
        <time>2015-12-07T12:36:48Z</time>
      </trkpt>
      <trkpt lat="43.87767" lon="3.70152">
        <ele>80.316474418495</ele>
        <time>2015-12-07T12:36:53Z</time>
      </trkpt>
      <trkpt lat="43.87804" lon="3.70141">
        <ele>77.519900405969</ele>
        <time>2015-12-07T12:37:36Z</time>
      </trkpt>
      <trkpt lat="43.87813" lon="3.70134">
        <ele>75.606665437546</ele>
        <time>2015-12-07T12:37:36Z</time>
      </trkpt>
      <trkpt lat="43.87822" lon="3.70132">
        <ele>75.606665437546</ele>
        <time>2015-12-07T12:37:49Z</time>
      </trkpt>
      <trkpt lat="43.87833" lon="3.70137">
        <ele>74.649037016868</ele>
        <time>2015-12-07T12:38:20Z</time>
      </trkpt>
    </trkseg>
  </trk>
</gpx>